Labordeboy, Argentina
Current Conditions -  °F | °C
As of 7:00 PM on Sunday 23 Nov 2014 (Local Time) from SAAR Reporting Station
Clear Clear  
Wind Chill: 84°   Ceiling: Unl
Heat Index: 84°   Visibility: 6mi
Dew Point: 55°   Wind: 15mph
Humidity: 37%   Direction: 360°N
Pressure: 29.68"   Gusts: NA
Location:  33.72°S, 61.33°W
Report Text: SAAR 232200Z 36013KT CAVOK 29/13 Q1005
Loading
Personal Weather Stations






























Interactive Weather Map New forecast layout! Learn more

10-Day Weather Forecast

Advertisements
Track Severe Weather on mobile